createdAt,value
2019-03-16T00:00:52.244Z,56
2019-03-16T00:01:57.292Z,53
2019-03-16T00:02:52.240Z,54
2019-03-16T00:03:52.267Z,54
2019-03-16T00:04:52.318Z,54
2019-03-16T00:05:52.274Z,55
2019-03-16T00:06:52.291Z,56
2019-03-16T00:07:52.285Z,55
2019-03-16T00:08:52.237Z,55
2019-03-16T00:09:52.271Z,55
2019-03-16T00:10:52.279Z,54
2019-03-16T00:11:52.417Z,55
2019-03-16T00:12:52.290Z,55
2019-03-16T00:13:52.343Z,55
2019-03-16T00:14:52.272Z,55
2019-03-16T00:15:52.365Z,54
2019-03-16T00:16:52.314Z,54
2019-03-16T00:17:52.259Z,55
2019-03-16T00:18:52.288Z,54
2019-03-16T00:19:52.354Z,56
2019-03-16T00:20:52.308Z,54
2019-03-16T00:21:52.333Z,55
2019-03-16T00:22:52.327Z,55
2019-03-16T00:23:52.302Z,55
2019-03-16T00:24:52.314Z,54
2019-03-16T00:25:52.355Z,55
2019-03-16T00:26:52.330Z,55
2019-03-16T00:27:52.416Z,55
2019-03-16T00:28:52.385Z,55
2019-03-16T00:29:52.519Z,56
2019-03-16T00:30:52.454Z,55
2019-03-16T00:31:52.467Z,55
2019-03-16T00:32:52.420Z,55
2019-03-16T00:33:52.460Z,56
2019-03-16T00:34:52.432Z,56
2019-03-16T00:35:52.477Z,55
2019-03-16T00:36:52.452Z,55
2019-03-16T00:37:52.496Z,55
2019-03-16T00:38:52.532Z,56
2019-03-16T00:39:52.595Z,57
2019-03-16T00:40:52.513Z,56
2019-03-16T00:41:52.521Z,57
2019-03-16T00:42:52.555Z,55
2019-03-16T00:43:52.571Z,57
2019-03-16T00:44:52.578Z,57
2019-03-16T00:45:52.670Z,57
2019-03-16T00:46:52.654Z,57
2019-03-16T00:47:52.663Z,57
2019-03-16T00:48:52.677Z,57
2019-03-16T00:49:52.717Z,57
2019-03-16T00:50:52.690Z,58
2019-03-16T00:51:52.687Z,58
2019-03-16T00:52:52.716Z,59
2019-03-16T00:53:52.750Z,58
2019-03-16T00:55:52.811Z,58
2019-03-16T00:56:52.805Z,58
2019-03-16T00:57:52.809Z,58
2019-03-16T00:58:52.953Z,59
2019-03-16T00:59:53.005Z,59
2019-03-16T01:00:52.856Z,59
2019-03-16T01:01:53.026Z,59
2019-03-16T01:02:52.909Z,59
2019-03-16T01:03:52.898Z,58
2019-03-16T01:04:52.930Z,59
2019-03-16T01:05:52.921Z,59
2019-03-16T01:06:52.937Z,59
2019-03-16T01:07:52.963Z,59
2019-03-16T01:08:52.993Z,60
2019-03-16T01:09:53.005Z,59
2019-03-16T01:10:53.043Z,59
2019-03-16T01:11:53.002Z,59
2019-03-16T01:12:53.038Z,59
2019-03-16T01:13:53.032Z,58
2019-03-16T01:14:53.120Z,59
2019-03-16T01:15:53.622Z,58
2019-03-16T01:16:53.083Z,59
2019-03-16T01:17:53.135Z,59
2019-03-16T01:18:53.193Z,59
2019-03-16T01:19:53.129Z,58
2019-03-16T01:20:53.181Z,59
2019-03-16T01:21:53.179Z,59
2019-03-16T01:22:53.236Z,58
2019-03-16T01:23:53.212Z,59
2019-03-16T01:24:53.283Z,60
2019-03-16T01:25:53.227Z,60
2019-03-16T01:26:53.250Z,60
2019-03-16T01:27:53.342Z,60
2019-03-16T01:28:53.249Z,59
2019-03-16T01:29:53.291Z,59
2019-03-16T01:30:53.263Z,59
2019-03-16T01:31:53.390Z,60
2019-03-16T01:32:53.318Z,59
2019-03-16T01:33:53.371Z,59
2019-03-16T01:34:53.356Z,60
2019-03-16T01:35:53.368Z,59
2019-03-16T01:36:53.388Z,59
2019-03-16T01:37:53.379Z,59
2019-03-16T01:38:53.371Z,59
2019-03-16T01:39:53.383Z,59
2019-03-16T01:40:53.536Z,59
2019-03-16T01:41:53.445Z,60
2019-03-16T01:42:53.498Z,60
2019-03-16T01:43:53.501Z,59
2019-03-16T01:44:53.522Z,59
2019-03-16T01:45:53.492Z,59
2019-03-16T01:46:53.544Z,59
2019-03-16T01:47:53.558Z,59
2019-03-16T01:48:53.542Z,59
2019-03-16T01:49:53.566Z,59
2019-03-16T01:50:53.622Z,60
2019-03-16T01:51:53.694Z,60
2019-03-16T01:52:53.608Z,59
2019-03-16T01:53:53.613Z,59
2019-03-16T01:54:53.635Z,60
2019-03-16T01:56:01.135Z,60
2019-03-16T01:56:53.652Z,60
2019-03-16T01:57:53.720Z,60
2019-03-16T01:58:53.706Z,61
2019-03-16T01:59:53.758Z,61
2019-03-16T02:00:53.706Z,61
2019-03-16T02:01:53.776Z,60
2019-03-16T02:02:55.774Z,61
2019-03-16T02:03:53.744Z,61
2019-03-16T02:04:53.790Z,61
2019-03-16T02:05:53.798Z,61
2019-03-16T02:06:53.780Z,61
2019-03-16T02:07:53.838Z,61
2019-03-16T02:08:53.826Z,62
2019-03-16T02:09:53.821Z,62
2019-03-16T02:10:53.860Z,61
2019-03-16T02:11:53.877Z,61
2019-03-16T02:12:53.902Z,61
2019-03-16T02:13:53.872Z,61
2019-03-16T02:14:53.886Z,61
2019-03-16T02:15:53.898Z,61
2019-03-16T02:16:53.935Z,61
2019-03-16T02:17:53.931Z,61
2019-03-16T02:18:53.963Z,61
2019-03-16T02:19:53.957Z,61
2019-03-16T02:20:54.007Z,60
2019-03-16T02:21:53.964Z,60
2019-03-16T02:22:54.100Z,61
2019-03-16T02:23:54.113Z,61
2019-03-16T02:24:54.037Z,61
2019-03-16T02:25:54.062Z,61
2019-03-16T02:26:54.057Z,61
2019-03-16T02:27:54.072Z,61
2019-03-16T02:28:54.068Z,61
2019-03-16T02:29:54.121Z,60
2019-03-16T02:30:54.109Z,60
2019-03-16T02:31:54.158Z,61
2019-03-16T02:33:10.984Z,60
2019-03-16T02:33:54.177Z,60
2019-03-16T02:34:54.129Z,60
2019-03-16T02:35:54.160Z,61
2019-03-16T02:36:54.182Z,61
2019-03-16T02:37:54.175Z,61
2019-03-16T02:38:54.185Z,61
2019-03-16T02:39:54.235Z,60
2019-03-16T02:40:54.224Z,60
2019-03-16T02:41:54.264Z,60
2019-03-16T02:42:54.212Z,60
2019-03-16T02:43:54.243Z,60
2019-03-16T02:44:54.251Z,60
2019-03-16T02:45:54.305Z,60
2019-03-16T02:46:54.281Z,60
2019-03-16T02:47:54.293Z,60
2019-03-16T02:48:54.362Z,60
2019-03-16T02:49:54.343Z,60
2019-03-16T02:50:54.360Z,60
2019-03-16T02:51:54.352Z,60
2019-03-16T02:52:54.905Z,59
2019-03-16T02:53:54.374Z,60
2019-03-16T02:54:54.380Z,60
2019-03-16T02:55:54.444Z,60
2019-03-16T02:56:54.407Z,60
2019-03-16T02:57:54.416Z,61
2019-03-16T02:58:54.414Z,60
2019-03-16T02:59:54.440Z,60
2019-03-16T03:00:54.455Z,59
2019-03-16T03:01:54.567Z,60
2019-03-16T03:02:54.487Z,60
2019-03-16T03:03:54.509Z,60
2019-03-16T03:04:54.537Z,60
2019-03-16T03:05:54.490Z,60
2019-03-16T03:06:54.526Z,60
2019-03-16T03:07:54.485Z,60
2019-03-16T03:08:54.519Z,59
2019-03-16T03:09:54.529Z,60
2019-03-16T03:10:54.538Z,60
2019-03-16T03:11:54.561Z,60
2019-03-16T03:12:54.538Z,59
2019-03-16T03:13:54.560Z,60
2019-03-16T03:14:54.572Z,60
2019-03-16T03:15:54.621Z,60
2019-03-16T03:16:54.600Z,60
2019-03-16T03:17:54.583Z,61
2019-03-16T03:18:54.595Z,60
2019-03-16T03:19:54.628Z,60
2019-03-16T03:20:54.620Z,60
2019-03-16T03:21:54.622Z,60
2019-03-16T03:22:54.622Z,60
2019-03-16T03:23:54.644Z,60
2019-03-16T03:24:54.655Z,60
2019-03-16T03:25:54.656Z,61
2019-03-16T03:26:54.676Z,60
2019-03-16T03:27:54.703Z,59
2019-03-16T03:28:54.720Z,60
2019-03-16T03:29:57.205Z,60
2019-03-16T03:30:54.782Z,60
2019-03-16T03:31:54.739Z,59
2019-03-16T03:32:54.674Z,60
2019-03-16T03:34:01.254Z,60
2019-03-16T03:34:54.838Z,60
2019-03-16T03:35:54.755Z,59
2019-03-16T03:36:54.746Z,60
2019-03-16T03:37:54.754Z,60
2019-03-16T03:38:54.754Z,60
2019-03-16T03:39:54.772Z,59
2019-03-16T03:40:54.773Z,60
2019-03-16T03:41:54.800Z,59
2019-03-16T03:42:54.768Z,59
2019-03-16T03:43:54.837Z,59
2019-03-16T03:44:55.909Z,59
2019-03-16T03:45:54.832Z,59
2019-03-16T03:46:54.833Z,60
2019-03-16T03:47:54.811Z,60
2019-03-16T03:48:54.833Z,60
2019-03-16T03:49:54.883Z,60
2019-03-16T03:50:54.820Z,60
2019-03-16T03:51:54.853Z,61
2019-03-16T03:52:54.852Z,59
2019-03-16T03:53:54.866Z,59
2019-03-16T03:54:54.846Z,59
2019-03-16T03:55:54.851Z,59
2019-03-16T03:56:54.841Z,60
2019-03-16T03:57:54.895Z,59
2019-03-16T03:58:54.875Z,59
2019-03-16T03:59:54.909Z,59
2019-03-16T04:00:54.922Z,59
2019-03-16T04:01:54.888Z,59
2019-03-16T04:02:54.898Z,59
2019-03-16T04:03:54.928Z,59
2019-03-16T04:04:54.932Z,59
2019-03-16T04:05:54.932Z,59
2019-03-16T04:06:54.961Z,59
2019-03-16T04:07:54.956Z,59
2019-03-16T04:08:54.979Z,59
2019-03-16T04:09:54.944Z,59
2019-03-16T04:10:54.967Z,59
2019-03-16T04:11:54.971Z,59
2019-03-16T04:12:54.948Z,60
2019-03-16T04:13:54.966Z,60
2019-03-16T04:14:54.957Z,60
2019-03-16T04:15:55.026Z,60
2019-03-16T04:16:55.173Z,60
2019-03-16T04:17:55.094Z,59
2019-03-16T04:18:54.996Z,59
2019-03-16T04:19:54.996Z,59
2019-03-16T04:20:55.002Z,59
2019-03-16T04:21:55.141Z,59
2019-03-16T04:22:54.995Z,59
2019-03-16T04:23:55.033Z,59
2019-03-16T04:24:55.043Z,59
2019-03-16T04:25:55.033Z,58
2019-03-16T04:26:55.034Z,59
2019-03-16T04:27:55.038Z,58
2019-03-16T04:28:55.057Z,59
2019-03-16T04:29:56.135Z,59
2019-03-16T04:30:55.062Z,59
2019-03-16T04:31:55.096Z,59
2019-03-16T04:32:55.076Z,58
2019-03-16T04:33:55.064Z,58
2019-03-16T04:34:55.063Z,59
2019-03-16T04:35:55.077Z,58
2019-03-16T04:36:55.193Z,58
2019-03-16T04:37:55.089Z,58
2019-03-16T04:38:55.092Z,59
2019-03-16T04:39:55.170Z,59
2019-03-16T04:40:55.091Z,59
2019-03-16T04:41:55.139Z,58
2019-03-16T04:42:55.127Z,59
2019-03-16T04:43:55.129Z,59
2019-03-16T04:44:55.271Z,59
2019-03-16T04:45:55.128Z,59
2019-03-16T04:46:55.102Z,59
2019-03-16T04:47:55.127Z,59
2019-03-16T04:48:55.129Z,59
2019-03-16T04:49:55.123Z,58
2019-03-16T04:50:55.224Z,59
2019-03-16T04:51:55.124Z,58
2019-03-16T04:52:55.174Z,59
2019-03-16T04:53:55.163Z,59
2019-03-16T04:54:55.180Z,58
2019-03-16T04:55:55.177Z,58
2019-03-16T04:56:55.159Z,58
2019-03-16T04:57:55.154Z,59
2019-03-16T04:58:55.282Z,59
2019-03-16T04:59:55.170Z,59
2019-03-16T05:00:55.171Z,59
2019-03-16T05:01:55.154Z,59
2019-03-16T05:02:55.199Z,59
2019-03-16T05:03:55.189Z,60
2019-03-16T05:04:55.160Z,59
2019-03-16T05:05:55.201Z,59
2019-03-16T05:06:55.249Z,59
2019-03-16T05:07:55.186Z,59
2019-03-16T05:08:55.215Z,59
2019-03-16T05:09:55.191Z,59
2019-03-16T05:10:55.189Z,60
2019-03-16T05:11:55.255Z,60
2019-03-16T05:12:55.266Z,59
2019-03-16T05:13:55.265Z,60
2019-03-16T05:14:55.215Z,60
2019-03-16T05:15:55.250Z,60
2019-03-16T05:16:55.302Z,60
2019-03-16T05:17:55.232Z,61
2019-03-16T05:18:55.276Z,60
2019-03-16T05:19:55.299Z,60
2019-03-16T05:20:55.234Z,60
2019-03-16T05:21:55.282Z,60
2019-03-16T05:22:55.278Z,60
2019-03-16T05:23:55.301Z,60
2019-03-16T05:24:55.291Z,60
2019-03-16T05:25:55.337Z,60
2019-03-16T05:26:55.283Z,60
2019-03-16T05:27:55.298Z,60
2019-03-16T05:28:55.286Z,60
2019-03-16T05:29:56.341Z,60
2019-03-16T05:30:55.285Z,60
2019-03-16T05:31:55.378Z,59
2019-03-16T05:32:55.294Z,60
2019-03-16T05:33:55.339Z,60
2019-03-16T05:34:56.596Z,60
2019-03-16T05:35:55.317Z,60
2019-03-16T05:36:56.132Z,60
2019-03-16T05:37:55.328Z,60
2019-03-16T05:38:55.359Z,60
2019-03-16T05:39:55.371Z,60
2019-03-16T05:40:55.406Z,61
2019-03-16T05:41:55.396Z,61
2019-03-16T05:42:55.362Z,61
2019-03-16T05:43:55.414Z,61
2019-03-16T05:44:55.365Z,61
2019-03-16T05:45:55.367Z,61
2019-03-16T05:46:55.391Z,61
2019-03-16T05:47:55.444Z,61
2019-03-16T05:48:55.372Z,61
2019-03-16T05:49:55.345Z,61
2019-03-16T05:50:57.426Z,60
2019-03-16T05:51:55.382Z,60
2019-03-16T05:52:55.381Z,60
2019-03-16T05:53:55.430Z,60
2019-03-16T05:54:55.423Z,61
2019-03-16T05:55:55.422Z,61
2019-03-16T05:56:55.448Z,61
2019-03-16T05:57:55.411Z,60
2019-03-16T05:58:55.442Z,60
2019-03-16T05:59:55.550Z,60
2019-03-16T06:00:55.458Z,60
2019-03-16T06:01:55.527Z,60
2019-03-16T06:02:55.462Z,60
2019-03-16T06:03:55.457Z,60
2019-03-16T06:05:09.384Z,61
2019-03-16T06:05:55.467Z,60
2019-03-16T06:06:55.478Z,60
2019-03-16T06:07:55.497Z,59
2019-03-16T06:08:55.509Z,60
2019-03-16T06:09:55.487Z,60
2019-03-16T06:10:55.474Z,60
2019-03-16T06:11:55.535Z,60
2019-03-16T06:12:55.511Z,60
2019-03-16T06:13:55.501Z,60
2019-03-16T06:14:55.535Z,59
2019-03-16T06:15:55.546Z,60
2019-03-16T06:16:55.497Z,60
2019-03-16T06:17:55.587Z,60
2019-03-16T06:18:55.496Z,60
2019-03-16T06:19:55.501Z,60
2019-03-16T06:20:55.524Z,60
2019-03-16T06:21:55.539Z,59
2019-03-16T06:22:55.524Z,59
2019-03-16T06:23:55.577Z,59
2019-03-16T06:24:55.516Z,60
2019-03-16T06:25:55.533Z,60
2019-03-16T06:26:55.525Z,60
2019-03-16T06:27:55.601Z,59
2019-03-16T06:28:56.616Z,59
2019-03-16T06:29:55.646Z,59
2019-03-16T06:30:55.567Z,59
2019-03-16T06:31:55.611Z,60
2019-03-16T06:32:55.599Z,59
2019-03-16T06:33:55.576Z,59
2019-03-16T06:34:55.594Z,58
2019-03-16T06:35:55.582Z,58
2019-03-16T06:36:55.581Z,58
2019-03-16T06:37:55.587Z,59
2019-03-16T06:38:55.578Z,59
2019-03-16T06:39:55.592Z,60
2019-03-16T06:40:55.669Z,59
2019-03-16T06:41:55.582Z,59
2019-03-16T06:42:55.654Z,60
2019-03-16T06:43:55.594Z,59
2019-03-16T06:44:55.660Z,59
2019-03-16T06:45:55.632Z,59
2019-03-16T06:46:55.635Z,58
2019-03-16T06:47:55.637Z,58
2019-03-16T06:48:55.627Z,59
2019-03-16T06:49:55.726Z,58
2019-03-16T06:50:55.623Z,59
2019-03-16T06:51:55.668Z,58
2019-03-16T06:52:55.725Z,58
2019-03-16T06:53:57.957Z,58
2019-03-16T06:54:55.640Z,59
2019-03-16T06:55:55.680Z,59
2019-03-16T06:56:55.691Z,59
2019-03-16T06:57:55.682Z,59
2019-03-16T06:58:58.290Z,59
2019-03-16T06:59:55.655Z,58
2019-03-16T07:00:55.676Z,57
2019-03-16T07:01:55.655Z,57
2019-03-16T07:02:55.705Z,57
2019-03-16T07:03:55.709Z,58
2019-03-16T07:04:55.696Z,58
2019-03-16T07:05:55.729Z,57
2019-03-16T07:06:55.715Z,57
2019-03-16T07:07:56.829Z,58
2019-03-16T07:08:55.737Z,56
2019-03-16T07:09:55.779Z,58
2019-03-16T07:10:55.756Z,57
2019-03-16T07:11:55.769Z,56
2019-03-16T07:12:55.738Z,56
2019-03-16T07:13:55.761Z,56
2019-03-16T07:14:55.720Z,56
2019-03-16T07:15:55.843Z,56
2019-03-16T07:17:01.725Z,57
2019-03-16T07:17:55.803Z,57
2019-03-16T07:18:58.890Z,57
2019-03-16T07:19:55.752Z,57
2019-03-16T07:20:55.818Z,57
2019-03-16T07:21:55.780Z,56
2019-03-16T07:22:55.784Z,56
2019-03-16T07:23:55.844Z,56
2019-03-16T07:24:55.905Z,56
2019-03-16T07:25:55.913Z,55
2019-03-16T07:26:55.834Z,55
2019-03-16T07:27:55.919Z,55
2019-03-16T07:28:55.866Z,55
2019-03-16T07:29:55.878Z,55
2019-03-16T07:30:55.871Z,56
2019-03-16T07:31:55.901Z,56
2019-03-16T07:32:58.094Z,56
2019-03-16T07:33:55.901Z,56
2019-03-16T07:34:55.883Z,56
2019-03-16T07:35:55.845Z,56
2019-03-16T07:36:55.879Z,55
2019-03-16T07:37:55.878Z,55
2019-03-16T07:38:55.881Z,55
2019-03-16T07:39:56.001Z,55
2019-03-16T07:40:56.406Z,55
2019-03-16T07:41:55.945Z,55
2019-03-16T07:42:55.916Z,55
2019-03-16T07:43:55.959Z,54
2019-03-16T07:45:07.442Z,54
2019-03-16T07:45:55.909Z,54
2019-03-16T07:46:56.006Z,54
2019-03-16T07:47:55.937Z,54
2019-03-16T07:48:55.989Z,53
2019-03-16T07:49:56.008Z,53
2019-03-16T07:50:55.962Z,53
2019-03-16T07:51:55.993Z,53
2019-03-16T07:52:56.002Z,53
2019-03-16T07:53:56.117Z,52
2019-03-16T07:54:56.106Z,53
2019-03-16T07:55:55.991Z,52
2019-03-16T07:56:56.032Z,52
2019-03-16T07:57:56.042Z,50
2019-03-16T07:58:56.042Z,50
2019-03-16T07:59:56.031Z,51
2019-03-16T08:00:56.043Z,51
2019-03-16T08:01:56.121Z,52
2019-03-16T08:02:56.073Z,51
2019-03-16T08:03:56.095Z,52
2019-03-16T08:04:56.079Z,53
2019-03-16T08:05:56.141Z,53
2019-03-16T08:06:56.161Z,54
2019-03-16T08:07:56.079Z,54
2019-03-16T08:08:56.099Z,55
2019-03-16T08:09:56.125Z,55
2019-03-16T08:10:56.156Z,55
2019-03-16T08:11:56.141Z,55
2019-03-16T08:12:56.118Z,54
2019-03-16T08:13:56.141Z,54
2019-03-16T08:14:56.103Z,55
2019-03-16T08:15:56.239Z,55
2019-03-16T08:16:56.373Z,53
2019-03-16T08:17:56.206Z,54
2019-03-16T08:18:56.127Z,54
2019-03-16T08:19:56.207Z,54
2019-03-16T08:20:56.145Z,55
2019-03-16T08:21:56.205Z,56
2019-03-16T08:22:56.219Z,55
2019-03-16T08:23:56.205Z,55
2019-03-16T08:24:56.214Z,54
2019-03-16T08:25:56.172Z,56
2019-03-16T08:26:56.242Z,55
2019-03-16T08:27:56.202Z,56
2019-03-16T08:28:58.926Z,56
2019-03-16T08:29:56.184Z,57
2019-03-16T08:30:56.873Z,56
2019-03-16T08:31:56.230Z,55
2019-03-16T08:32:56.229Z,55
2019-03-16T08:33:56.248Z,56
2019-03-16T08:34:56.266Z,56
2019-03-16T08:35:56.304Z,57
2019-03-16T08:36:56.237Z,58
2019-03-16T08:37:56.322Z,59
2019-03-16T08:38:56.253Z,59
2019-03-16T08:39:56.296Z,60
2019-03-16T08:40:56.259Z,61
2019-03-16T08:41:56.359Z,61
2019-03-16T08:42:56.282Z,60
2019-03-16T08:43:56.303Z,60
2019-03-16T08:44:58.956Z,59
2019-03-16T08:45:56.320Z,61
2019-03-16T08:46:56.314Z,62
2019-03-16T08:48:28.541Z,63
2019-03-16T08:48:56.288Z,63
2019-03-16T08:49:56.318Z,62
2019-03-16T08:50:56.325Z,64
2019-03-16T08:51:56.325Z,66
2019-03-16T08:52:56.314Z,67
2019-03-16T08:53:58.595Z,66
2019-03-16T08:54:56.294Z,66
2019-03-16T08:55:56.336Z,67
2019-03-16T08:56:56.348Z,68
2019-03-16T08:58:05.516Z,66
2019-03-16T08:58:56.385Z,65
2019-03-16T08:59:56.384Z,66
2019-03-16T09:00:56.385Z,67
2019-03-16T09:01:56.353Z,67
2019-03-16T09:02:56.346Z,69
2019-03-16T09:03:56.421Z,68
2019-03-16T09:04:56.361Z,69
2019-03-16T09:05:56.383Z,69
2019-03-16T09:06:56.372Z,70
2019-03-16T09:07:56.415Z,71
2019-03-16T09:08:56.395Z,68
2019-03-16T09:09:56.411Z,70
2019-03-16T09:10:56.450Z,70
2019-03-16T09:11:58.210Z,70
2019-03-16T09:12:56.427Z,69
2019-03-16T09:13:56.428Z,71
2019-03-16T09:14:56.470Z,72
2019-03-16T09:15:56.464Z,71
2019-03-16T09:16:56.489Z,71
2019-03-16T09:17:56.423Z,72
2019-03-16T09:18:56.476Z,73
2019-03-16T09:19:56.488Z,73
2019-03-16T09:20:56.515Z,72
2019-03-16T09:21:56.499Z,72
2019-03-16T09:22:56.528Z,73
2019-03-16T09:23:56.556Z,73
2019-03-16T09:24:56.507Z,73
2019-03-16T09:25:56.533Z,74
2019-03-16T09:26:58.808Z,72
2019-03-16T09:27:56.544Z,74
2019-03-16T09:29:00.148Z,74
2019-03-16T09:29:56.564Z,75
2019-03-16T09:30:56.692Z,75
2019-03-16T09:31:56.618Z,76
2019-03-16T09:32:56.561Z,75
2019-03-16T09:33:56.580Z,76
2019-03-16T09:34:56.561Z,76
2019-03-16T09:35:56.580Z,76
2019-03-16T09:36:56.578Z,77
2019-03-16T09:37:56.650Z,77
2019-03-16T09:38:56.623Z,77
2019-03-16T09:39:56.645Z,77
2019-03-16T09:40:56.607Z,78
2019-03-16T09:41:56.712Z,78
2019-03-16T09:42:56.628Z,78
2019-03-16T09:43:56.620Z,78
2019-03-16T09:44:56.644Z,78
2019-03-16T09:45:56.655Z,78
2019-03-16T09:46:56.647Z,78
2019-03-16T09:47:56.649Z,78
2019-03-16T09:48:56.987Z,79
2019-03-16T09:49:56.932Z,78
2019-03-16T09:50:56.712Z,77
2019-03-16T09:51:56.672Z,78
2019-03-16T09:52:56.659Z,78
2019-03-16T09:53:56.671Z,78
2019-03-16T09:54:56.711Z,78
2019-03-16T09:55:56.690Z,78
2019-03-16T09:57:01.363Z,78
2019-03-16T09:57:56.703Z,79
2019-03-16T09:58:56.695Z,79
2019-03-16T09:59:56.700Z,80
2019-03-16T10:00:58.987Z,79
2019-03-16T10:01:56.740Z,79
2019-03-16T10:02:56.719Z,78
2019-03-16T10:03:56.713Z,78
2019-03-16T10:04:57.844Z,78
2019-03-16T10:05:56.758Z,80
2019-03-16T10:06:56.749Z,80
2019-03-16T10:07:56.720Z,81
2019-03-16T10:08:56.735Z,81
2019-03-16T10:09:56.751Z,81
2019-03-16T10:10:56.798Z,80
2019-03-16T10:11:56.844Z,79
2019-03-16T10:12:56.787Z,79
2019-03-16T10:13:56.822Z,79
2019-03-16T10:14:56.830Z,79
2019-03-16T10:15:56.820Z,79
2019-03-16T10:16:56.884Z,81
2019-03-16T10:17:56.872Z,81
2019-03-16T10:18:56.908Z,81
2019-03-16T10:19:56.896Z,80
2019-03-16T10:20:56.883Z,79
2019-03-16T10:21:56.896Z,79
2019-03-16T10:22:56.924Z,79
2019-03-16T10:23:56.945Z,78
2019-03-16T10:24:56.946Z,78
2019-03-16T10:25:56.931Z,77
2019-03-16T10:26:56.997Z,78
2019-03-16T10:27:57.045Z,79
2019-03-16T10:28:57.020Z,79
2019-03-16T10:29:57.022Z,79
2019-03-16T10:30:57.104Z,79
2019-03-16T10:31:57.101Z,79
2019-03-16T10:32:57.104Z,79
2019-03-16T10:33:57.110Z,80
2019-03-16T10:34:57.210Z,80
2019-03-16T10:35:57.129Z,80
2019-03-16T10:36:57.169Z,81
2019-03-16T10:37:57.200Z,81
2019-03-16T10:38:57.161Z,79
2019-03-16T10:39:57.221Z,79
2019-03-16T10:40:57.207Z,79
2019-03-16T10:41:57.254Z,79
2019-03-16T10:42:57.251Z,79
2019-03-16T10:43:57.283Z,80
2019-03-16T10:44:57.261Z,81
2019-03-16T10:45:57.317Z,81
2019-03-16T10:46:57.340Z,82
2019-03-16T10:47:57.347Z,82
2019-03-16T10:48:57.380Z,81
2019-03-16T10:49:57.393Z,80
2019-03-16T10:50:57.382Z,80
2019-03-16T10:51:57.433Z,80
2019-03-16T10:52:57.433Z,80
2019-03-16T10:53:57.878Z,79
2019-03-16T10:54:57.470Z,78
2019-03-16T10:55:57.475Z,78
2019-03-16T10:56:57.485Z,79
2019-03-16T10:57:57.479Z,79
2019-03-16T10:58:57.518Z,79
2019-03-16T10:59:57.541Z,78
2019-03-16T11:00:57.572Z,79
2019-03-16T11:01:57.681Z,78
2019-03-16T11:02:57.759Z,78
2019-03-16T11:03:57.589Z,79
2019-03-16T11:04:57.615Z,80
2019-03-16T11:05:57.622Z,81
2019-03-16T11:06:57.621Z,81
2019-03-16T11:07:57.662Z,81
2019-03-16T11:08:57.651Z,81
2019-03-16T11:09:57.704Z,81
2019-03-16T11:10:57.689Z,81
2019-03-16T11:11:57.701Z,80
2019-03-16T11:12:57.746Z,80
2019-03-16T11:13:57.726Z,80
2019-03-16T11:14:57.804Z,78
2019-03-16T11:15:57.757Z,78
2019-03-16T11:16:57.817Z,78
2019-03-16T11:17:58.373Z,78
2019-03-16T11:18:57.862Z,79
2019-03-16T11:19:57.847Z,80
2019-03-16T11:20:57.845Z,81
2019-03-16T11:21:57.862Z,82
2019-03-16T11:22:57.889Z,81
2019-03-16T11:23:57.913Z,81
2019-03-16T11:24:57.889Z,80
2019-03-16T11:25:57.928Z,78
2019-03-16T11:27:00.261Z,77
2019-03-16T11:27:57.990Z,77
2019-03-16T11:29:08.362Z,77
2019-03-16T11:29:57.955Z,78
2019-03-16T11:30:57.962Z,79
2019-03-16T11:31:58.302Z,78
2019-03-16T11:32:58.002Z,79
2019-03-16T11:33:58.010Z,78
2019-03-16T11:34:58.099Z,78
2019-03-16T11:35:58.040Z,79
2019-03-16T11:36:58.071Z,79
2019-03-16T11:37:58.163Z,78
2019-03-16T11:38:58.161Z,77
2019-03-16T11:39:58.081Z,78
2019-03-16T11:40:58.109Z,80
2019-03-16T11:41:58.162Z,80
2019-03-16T11:42:58.200Z,78
2019-03-16T11:43:58.160Z,79
2019-03-16T11:44:58.175Z,81
2019-03-16T11:45:58.190Z,81
2019-03-16T11:46:58.255Z,81
2019-03-16T11:47:58.225Z,81
2019-03-16T11:48:58.209Z,82
2019-03-16T11:49:58.231Z,82
2019-03-16T11:50:58.361Z,83
2019-03-16T11:51:58.292Z,83
2019-03-16T11:52:58.296Z,80
2019-03-16T11:53:58.292Z,80
2019-03-16T11:54:58.310Z,81
2019-03-16T11:55:58.315Z,81
2019-03-16T11:56:58.337Z,81
2019-03-16T11:57:58.354Z,79
2019-03-16T11:58:58.358Z,77
2019-03-16T11:59:58.337Z,75
2019-03-16T12:00:58.430Z,75
2019-03-16T12:02:05.041Z,76
2019-03-16T12:02:58.411Z,76
2019-03-16T12:03:58.428Z,74
2019-03-16T12:04:58.420Z,76
2019-03-16T12:05:58.430Z,78
2019-03-16T12:06:58.457Z,80
2019-03-16T12:07:58.443Z,82
2019-03-16T12:08:58.487Z,83
2019-03-16T12:09:58.525Z,83
2019-03-16T12:10:58.508Z,84
2019-03-16T12:11:58.586Z,83
2019-03-16T12:12:58.763Z,81
2019-03-16T12:13:58.630Z,82
2019-03-16T12:14:58.608Z,82
2019-03-16T12:15:58.547Z,81
2019-03-16T12:16:58.544Z,79
2019-03-16T12:17:58.622Z,76
2019-03-16T12:18:58.651Z,77
2019-03-16T12:19:58.621Z,79
2019-03-16T12:20:58.651Z,81
2019-03-16T12:21:58.756Z,81
2019-03-16T12:22:58.862Z,82
2019-03-16T12:23:58.726Z,83
2019-03-16T12:24:58.630Z,83
2019-03-16T12:25:58.712Z,83
2019-03-16T12:26:58.878Z,82
2019-03-16T12:27:58.925Z,82
2019-03-16T12:28:58.794Z,83
2019-03-16T12:29:58.849Z,81
2019-03-16T12:30:58.775Z,80
2019-03-16T12:31:58.860Z,79
2019-03-16T12:32:58.969Z,80
2019-03-16T12:33:58.775Z,80
2019-03-16T12:34:58.887Z,80
2019-03-16T12:35:58.868Z,80
2019-03-16T12:36:58.853Z,80
2019-03-16T12:37:59.050Z,78
2019-03-16T12:38:58.894Z,80
2019-03-16T12:39:58.929Z,80
2019-03-16T12:40:58.927Z,80
2019-03-16T12:41:58.908Z,80
2019-03-16T12:42:58.955Z,80
2019-03-16T12:43:58.929Z,80
2019-03-16T12:44:58.969Z,81
2019-03-16T12:45:58.949Z,81
2019-03-16T12:46:58.982Z,81
2019-03-16T12:47:58.997Z,81
2019-03-16T12:48:59.006Z,82
2019-03-16T12:49:58.975Z,82
2019-03-16T12:50:59.030Z,82
2019-03-16T12:51:59.044Z,82
2019-03-16T12:52:59.079Z,81
2019-03-16T12:53:59.044Z,82
2019-03-16T12:54:59.037Z,82
2019-03-16T12:55:59.113Z,81
2019-03-16T12:56:59.054Z,81
2019-03-16T12:57:59.203Z,81
2019-03-16T12:59:09.745Z,82
2019-03-16T12:59:59.112Z,83
2019-03-16T13:00:59.066Z,83
2019-03-16T13:01:59.178Z,84
2019-03-16T13:02:59.109Z,84
2019-03-16T13:03:59.194Z,84
2019-03-16T13:04:59.162Z,84
2019-03-16T13:05:59.127Z,84
2019-03-16T13:06:59.172Z,85
2019-03-16T13:07:59.136Z,86
2019-03-16T13:08:59.201Z,85
2019-03-16T13:09:59.138Z,85
2019-03-16T13:10:59.211Z,86
2019-03-16T13:11:59.246Z,86
2019-03-16T13:12:59.214Z,86
2019-03-16T13:13:59.227Z,86
2019-03-16T13:14:59.267Z,87
2019-03-16T13:15:59.339Z,88
2019-03-16T13:16:59.245Z,87
2019-03-16T13:17:59.251Z,88
2019-03-16T13:18:59.246Z,88
2019-03-16T13:19:59.234Z,89
2019-03-16T13:20:59.290Z,89
2019-03-16T13:21:59.337Z,88
2019-03-16T13:22:59.385Z,87
2019-03-16T13:23:59.362Z,87
2019-03-16T13:24:59.338Z,87
2019-03-16T13:25:59.335Z,87
2019-03-16T13:26:59.330Z,88
2019-03-16T13:27:59.352Z,88
2019-03-16T13:28:59.369Z,88
2019-03-16T13:29:59.479Z,88
2019-03-16T13:30:59.357Z,88
2019-03-16T13:31:59.572Z,89
2019-03-16T13:32:59.501Z,89
2019-03-16T13:33:59.463Z,89
2019-03-16T13:34:59.377Z,89
2019-03-16T13:35:59.457Z,90
2019-03-16T13:36:59.450Z,90
2019-03-16T13:37:59.409Z,90
2019-03-16T13:38:59.540Z,90
2019-03-16T13:39:59.453Z,88
2019-03-16T13:40:59.485Z,87
2019-03-16T13:41:59.458Z,87
2019-03-16T13:42:59.466Z,87
2019-03-16T13:43:59.472Z,87
2019-03-16T13:44:59.573Z,88
2019-03-16T13:45:59.480Z,88
2019-03-16T13:46:59.483Z,87
2019-03-16T13:47:59.566Z,87
2019-03-16T13:48:59.556Z,88
2019-03-16T13:49:59.546Z,88
2019-03-16T13:50:59.538Z,87
2019-03-16T13:51:59.541Z,87
2019-03-16T13:52:59.607Z,88
2019-03-16T13:53:59.683Z,87
2019-03-16T13:54:59.567Z,87
2019-03-16T13:55:59.596Z,87
2019-03-16T13:56:59.592Z,88
2019-03-16T13:57:59.564Z,88
2019-03-16T13:58:59.725Z,89
2019-03-16T14:00:11.054Z,89
2019-03-16T14:00:59.604Z,89
2019-03-16T14:02:00.738Z,89
2019-03-16T14:02:59.637Z,89
2019-03-16T14:03:59.631Z,89
2019-03-16T14:04:59.636Z,88
2019-03-16T14:05:59.624Z,88
2019-03-16T14:06:59.657Z,89
2019-03-16T14:07:59.659Z,89
2019-03-16T14:08:59.671Z,89
2019-03-16T14:09:59.658Z,90
2019-03-16T14:10:59.707Z,89
2019-03-16T14:11:59.699Z,89
2019-03-16T14:12:59.798Z,89
2019-03-16T14:13:59.690Z,88
2019-03-16T14:14:59.702Z,88
2019-03-16T14:15:59.722Z,88
2019-03-16T14:16:59.738Z,88